Time;durP1;ratioP1;P1;durP2;ratioP2;P2;SDS_P1;SDS_P2;PMS_P1;PMS_P2;Temp;Humidity;BMP_temperature;BMP_pressure;BME280_temperature;BME280_humidity;BME280_pressure;Samples;Min_cycle;Max_cycle;Signal;HPM_P1;HPM_P2
2021/04/09 00:04:39;;;;;;;11.37;7.60;;;;;;;2.38;53.74;100605.44;8682951;33;20271;-75
2021/04/09 00:09:43;;;;;;;14.00;7.53;;;;;;;2.40;53.68;100597.41;8683050;33;20228;-75
2021/04/09 00:14:45;;;;;;;12.40;8.13;;;;;;;2.34;53.76;100593.25;8683510;33;20224;-75
2021/04/09 00:19:47;;;;;;;13.67;7.93;;;;;;;2.40;54.10;100595.63;8727897;33;20223;-75
2021/04/09 00:24:51;;;;;;;14.27;7.63;;;;;;;2.19;54.45;100580.63;8740863;33;20219;-75
2021/04/09 00:29:54;;;;;;;12.30;7.43;;;;;;;2.20;54.76;100574.44;8740821;33;20212;-75
2021/04/09 00:34:56;;;;;;;14.63;7.77;;;;;;;2.35;54.38;100562.28;8740256;33;20223;-75
2021/04/09 00:39:59;;;;;;;16.80;8.40;;;;;;;2.29;54.54;100565.22;8740432;33;20231;-75
2021/04/09 00:45:01;;;;;;;11.83;6.93;;;;;;;2.48;53.67;100559.97;8740279;33;20243;-75
2021/04/09 00:50:05;;;;;;;14.30;7.83;;;;;;;2.66;53.24;100550.34;8740965;33;20235;-76
2021/04/09 00:55:12;;;;;;;12.07;7.63;;;;;;;2.66;52.89;100543.25;8715685;33;20239;-75
2021/04/09 01:00:15;;;;;;;15.90;8.30;;;;;;;2.73;52.92;100538.53;8739767;33;20220;-74
2021/04/09 01:05:19;;;;;;;14.77;8.47;;;;;;;2.88;52.50;100531.63;8740187;33;20314;-75
2021/04/09 01:10:22;;;;;;;12.73;8.00;;;;;;;2.90;52.08;100516.50;8715092;33;20262;-75
2021/04/09 01:15:25;;;;;;;12.43;7.07;;;;;;;2.73;52.14;100510.19;8739490;33;20253;-74
2021/04/09 01:20:43;;;;;;;16.17;8.27;;;;;;;2.97;52.00;100512.66;8739339;33;20239;-74
2021/04/09 01:26:27;;;;;;;10.97;7.43;;;;;;;2.78;52.00;100507.34;8739287;33;20226;-75
2021/04/09 01:31:43;;;;;;;17.30;8.83;;;;;;;2.91;52.23;100483.72;8711768;33;20238;-74
2021/04/09 01:36:49;;;;;;;13.43;7.47;;;;;;;2.75;52.37;100484.47;8748384;33;20257;-73
2021/04/09 01:41:54;;;;;;;17.90;8.60;;;;;;;2.74;52.50;100482.75;8797026;33;20227;-75
2021/04/09 01:46:59;;;;;;;13.83;7.27;;;;;;;2.80;52.15;100474.50;8797043;33;20231;-75
2021/04/09 01:52:03;;;;;;;15.90;7.90;;;;;;;2.77;52.54;100465.81;8796858;33;20230;-74
2021/04/09 01:57:08;;;;;;;14.27;8.37;;;;;;;2.73;52.66;100458.94;8796532;33;20226;-75
2021/04/09 02:02:12;;;;;;;15.13;8.47;;;;;;;2.73;52.87;100440.38;8796320;33;20230;-75
2021/04/09 02:07:18;;;;;;;14.00;8.43;;;;;;;2.73;53.05;100451.84;8753235;33;20228;-74
2021/04/09 02:12:21;;;;;;;14.83;8.90;;;;;;;2.71;52.97;100431.63;8738099;33;20231;-75
2021/04/09 02:17:24;;;;;;;16.53;8.70;;;;;;;2.75;53.12;100426.09;8690654;33;20240;-75
2021/04/09 02:22:26;;;;;;;14.23;8.47;;;;;;;2.79;52.94;100410.88;8680328;33;20237;-75
2021/04/09 02:27:29;;;;;;;12.27;7.60;;;;;;;2.78;53.28;100410.03;8680587;33;20223;-76
2021/04/09 02:32:32;;;;;;;16.97;8.87;;;;;;;2.70;53.40;100396.28;8679922;33;20228;-75
2021/04/09 02:37:34;;;;;;;15.73;8.87;;;;;;;2.73;53.34;100398.78;8679839;33;20235;-76
2021/04/09 02:42:38;;;;;;;17.10;8.93;;;;;;;2.64;53.72;100388.63;8679497;33;20236;-74
2021/04/09 02:47:43;;;;;;;12.17;8.17;;;;;;;2.69;53.73;100394.56;8680228;33;20883;-75
2021/04/09 02:52:51;;;;;;;13.27;8.03;;;;;;;2.73;53.72;100382.88;8678190;33;20914;-75
2021/04/09 02:57:55;;;;;;;14.10;8.50;;;;;;;2.74;53.53;100386.38;8678740;33;20224;-75
2021/04/09 03:03:00;;;;;;;17.77;8.60;;;;;;;2.78;53.53;100378.19;8666586;33;20274;-74
2021/04/09 03:08:04;;;;;;;12.83;8.07;;;;;;;2.82;53.13;100376.25;8678154;33;20639;-75
2021/04/09 03:13:07;;;;;;;11.27;6.13;;;;;;;2.98;52.65;100366.59;8678204;33;20632;-75
2021/04/09 03:18:12;;;;;;;15.87;7.70;;;;;;;3.05;52.12;100367.16;8710371;33;20227;-75
2021/04/09 03:23:15;;;;;;;9.47;6.03;;;;;;;3.00;52.29;100367.38;8735773;33;20235;-75
2021/04/09 03:28:17;;;;;;;12.77;7.40;;;;;;;3.15;52.01;100356.94;8735580;33;21415;-73
2021/04/09 03:33:22;;;;;;;11.63;7.13;;;;;;;2.97;52.84;100334.84;8735515;33;20231;-76
2021/04/09 03:38:25;;;;;;;11.10;7.07;;;;;;;3.01;52.56;100339.91;8735704;33;20239;-75
2021/04/09 03:43:27;;;;;;;12.23;5.70;;;;;;;2.97;52.48;100332.19;8735470;33;20748;-75
2021/04/09 03:48:30;;;;;;;14.33;6.90;;;;;;;2.99;52.79;100322.34;8734897;33;20220;-75
2021/04/09 03:53:32;;;;;;;12.23;7.87;;;;;;;2.86;53.30;100329.22;8735172;33;20936;-76
2021/04/09 03:58:34;;;;;;;10.80;5.73;;;;;;;2.83;53.41;100320.47;8734920;33;20212;-75
2021/04/09 04:03:37;;;;;;;10.20;6.43;;;;;;;2.88;53.52;100316.72;8735364;33;20274;-75
2021/04/09 04:08:39;;;;;;;11.13;6.63;;;;;;;2.92;53.80;100310.34;8734590;33;20234;-76
2021/04/09 04:13:42;;;;;;;11.73;7.17;;;;;;;2.81;54.20;100309.06;8734889;33;20798;-74
2021/04/09 04:18:45;;;;;;;13.77;6.07;;;;;;;2.89;53.86;100300.72;8734517;33;20215;-76
2021/04/09 04:23:47;;;;;;;11.37;7.60;;;;;;;2.99;53.85;100309.97;8739576;33;20220;-76
2021/04/09 04:28:49;;;;;;;11.97;6.50;;;;;;;3.01;53.63;100299.25;8739228;33;20220;-74
2021/04/09 04:33:52;;;;;;;11.95;5.93;;;;;;;2.82;53.83;100304.63;8739415;33;20228;-75
2021/04/09 04:38:54;;;;;;;15.33;7.33;;;;;;;3.20;53.42;100296.50;8739082;33;20220;-76
2021/04/09 04:43:57;;;;;;;11.83;7.13;;;;;;;3.20;53.25;100301.81;8739195;33;20234;-75
2021/04/09 04:49:00;;;;;;;13.60;7.20;;;;;;;3.18;53.39;100298.38;8739362;33;20731;-75
2021/04/09 04:54:02;;;;;;;12.77;7.00;;;;;;;3.17;53.86;100289.56;8740201;33;20236;-75
2021/04/09 04:59:04;;;;;;;13.47;7.23;;;;;;;3.33;53.43;100291.44;8742135;33;20227;-73
2021/04/09 05:04:07;;;;;;;15.47;7.40;;;;;;;3.43;53.13;100282.91;8738937;33;20228;-75
2021/04/09 05:09:09;;;;;;;16.90;7.23;;;;;;;3.44;53.08;100278.44;8738822;33;20224;-75
2021/04/09 05:14:12;;;;;;;16.25;7.65;;;;;;;3.44;52.90;100276.63;8738633;33;20294;-75
2021/04/09 05:19:15;;;;;;;11.90;6.80;;;;;;;3.67;53.05;100277.19;8738207;33;21457;-75
2021/04/09 05:24:17;;;;;;;12.10;7.33;;;;;;;3.63;52.71;100278.31;8738779;33;20236;-75
2021/04/09 05:29:20;;;;;;;10.10;6.22;;;;;;;3.65;52.78;100276.44;8737885;33;20328;-75
2021/04/09 05:34:23;;;;;;;14.13;7.88;;;;;;;3.75;52.80;100272.31;8737062;33;20239;-75
2021/04/09 05:39:25;;;;;;;12.17;6.80;;;;;;;3.83;52.61;100277.22;8713272;33;20236;-74
2021/04/09 05:44:30;;;;;;;12.52;7.30;;;;;;;3.95;52.48;100284.53;8738068;33;20640;-74
2021/04/09 05:49:33;;;;;;;14.50;7.63;;;;;;;4.00;52.54;100281.59;8737421;33;20630;-75
2021/04/09 05:54:39;;;;;;;12.73;6.80;;;;;;;4.12;52.35;100281.81;8748878;33;20243;-75
2021/04/09 05:59:42;;;;;;;14.23;8.05;;;;;;;4.18;52.13;100289.41;8737194;33;20242;-76
2021/04/09 06:04:45;;;;;;;13.60;7.03;;;;;;;4.38;51.66;100274.16;8737670;33;20220;-75
2021/04/09 06:09:48;;;;;;;12.23;7.18;;;;;;;4.57;51.39;100274.78;8737137;33;20227;-75
2021/04/09 06:14:52;;;;;;;13.95;8.05;;;;;;;4.72;51.46;100274.88;8717462;33;20251;-75
2021/04/09 06:19:55;;;;;;;14.90;8.10;;;;;;;4.91;50.70;100279.94;8678772;34;20266;-76
2021/04/09 06:24:57;;;;;;;14.55;7.95;;;;;;;4.84;51.10;100267.00;8679049;34;20965;-76
2021/04/09 06:29:59;;;;;;;14.10;7.30;;;;;;;4.84;50.91;100267.00;8678858;34;20243;-75
2021/04/09 06:35:03;;;;;;;14.68;8.35;;;;;;;4.88;50.91;100265.00;8678671;34;20636;-76
2021/04/09 06:40:09;;;;;;;15.75;8.10;;;;;;;4.80;51.30;100259.28;8678405;34;20943;-76
2021/04/09 06:45:13;;;;;;;18.90;7.75;;;;;;;5.12;50.83;100265.41;8678650;34;20243;-76
2021/04/09 06:50:16;;;;;;;13.75;8.32;;;;;;;5.23;50.84;100260.28;8678925;34;20232;-75
2021/04/09 06:55:21;;;;;;;15.50;8.13;;;;;;;5.26;50.76;100257.41;8679508;34;20224;-76
2021/04/09 07:00:31;;;;;;;10.35;6.88;;;;;;;5.46;50.45;100258.88;8678933;34;20220;-76
2021/04/09 07:05:34;;;;;;;12.10;7.65;;;;;;;5.46;50.61;100258.88;8679268;34;20256;-76
2021/04/09 07:10:36;;;;;;;11.00;6.70;;;;;;;5.59;49.80;100244.78;8728233;33;20230;-74
2021/04/09 07:15:41;;;;;;;11.63;6.72;;;;;;;5.56;50.23;100248.50;8734901;33;21836;-76
2021/04/09 07:20:45;;;;;;;10.90;5.32;;;;;;;5.44;50.92;100239.47;8740442;33;20716;-76
2021/04/09 07:25:48;;;;;;;13.35;7.82;;;;;;;6.04;49.28;100229.50;8792322;33;20231;-76
2021/04/09 07:30:54;;;;;;;14.95;8.13;;;;;;;6.35;49.03;100231.03;8771631;33;20220;-76
2021/04/09 07:36:00;;;;;;;17.20;8.90;;;;;;;6.71;48.95;100233.03;8735105;33;20235;-76
2021/04/09 07:41:05;;;;;;;13.63;6.85;;;;;;;6.59;48.38;100240.06;8733592;33;20298;-76
2021/04/09 07:46:08;;;;;;;13.63;7.68;;;;;;;6.61;49.63;100234.66;8734235;33;20231;-76
2021/04/09 07:51:19;;;;;;;12.40;7.47;;;;;;;7.59;47.80;100246.59;8733215;33;20224;-76
2021/04/09 07:56:21;;;;;;;5.05;4.38;;;;;;;6.91;48.51;100226.41;8736282;33;20306;-75
2021/04/09 08:01:26;;;;;;;11.18;7.35;;;;;;;7.23;48.68;100228.66;8738393;33;20212;-74
2021/04/09 08:06:36;;;;;;;15.80;7.97;;;;;;;7.48;47.14;100236.66;8738502;33;20216;-77
2021/04/09 08:11:39;;;;;;;12.38;7.55;;;;;;;7.91;46.67;100228.25;8738179;33;20335;-77
2021/04/09 08:16:43;;;;;;;15.63;8.52;;;;;;;7.85;46.67;100227.84;8743568;33;20293;-76
2021/04/09 08:21:50;;;;;;;11.45;7.15;;;;;;;7.94;47.22;100238.72;8797655;33;20222;-76
2021/04/09 08:26:55;;;;;;;16.73;7.30;;;;;;;8.36;46.02;100225.88;8797477;33;20314;-75
2021/04/09 08:31:59;;;;;;;9.50;5.78;;;;;;;8.81;45.73;100238.63;8772446;33;20746;-77
2021/04/09 08:37:03;;;;;;;14.73;7.70;;;;;;;8.95;45.38;100233.06;8785646;33;20224;-75
2021/04/09 08:42:17;;;;;;;7.85;5.57;;;;;;;8.86;44.90;100222.19;8735402;33;20302;-75
2021/04/09 08:47:21;;;;;;;9.18;5.60;;;;;;;8.73;45.71;100225.81;8730374;33;22125;-75
2021/04/09 08:52:27;;;;;;;9.43;5.53;;;;;;;8.37;47.10;100230.25;8737761;33;20227;-77
2021/04/09 08:57:32;;;;;;;12.15;6.85;;;;;;;9.38;44.50;100224.38;8738429;33;20820;-76
2021/04/09 09:02:42;;;;;;;17.48;7.50;;;;;;;9.63;45.89;100239.38;8714368;33;20228;-75
2021/04/09 09:07:57;;;;;;;8.77;5.85;;;;;;;9.92;45.50;100220.09;8738760;33;20936;-75
2021/04/09 09:13:26;;;;;;;13.77;7.10;;;;;;;9.52;45.02;100207.19;8737830;33;20231;-77
2021/04/09 09:18:54;;;;;;;9.90;6.13;;;;;;;9.26;45.23;100203.88;8681343;33;20220;-76
2021/04/09 09:24:01;;;;;;;9.63;6.72;;;;;;;10.19;46.34;100192.00;8653585;33;20257;-77
2021/04/09 09:29:19;;;;;;;8.20;5.50;;;;;;;11.08;43.69;100192.53;8736058;33;20238;-76
2021/04/09 09:34:38;;;;;;;13.75;5.60;;;;;;;10.57;43.12;100197.72;8741450;33;20232;-76
2021/04/09 09:39:46;;;;;;;8.02;4.97;;;;;;;11.77;45.43;100191.94;8739982;33;20268;-76
2021/04/09 09:44:50;;;;;;;9.13;6.80;;;;;;;11.52;43.16;100188.72;8738584;33;20238;-76
2021/04/09 09:50:21;;;;;;;8.77;6.38;;;;;;;10.99;43.26;100191.50;8714572;33;20219;-76
2021/04/09 09:55:28;;;;;;;7.00;5.03;;;;;;;9.99;46.18;100175.69;8739776;33;20322;-76
2021/04/09 10:00:37;;;;;;;9.20;5.68;;;;;;;10.32;46.19;100172.06;8737939;33;21324;-76
2021/04/09 10:05:42;;;;;;;10.00;5.18;;;;;;;11.29;44.38;100188.03;8737213;33;20286;-76
2021/04/09 10:10:49;;;;;;;7.30;5.10;;;;;;;10.46;45.11;100176.28;8736875;33;20249;-77
2021/04/09 10:15:54;;;;;;;7.75;4.40;;;;;;;10.46;45.73;100165.53;8738178;33;20254;-77
2021/04/09 10:21:10;;;;;;;6.35;3.92;;;;;;;10.65;45.00;100172.91;8738814;33;20273;-74
2021/04/09 10:26:17;;;;;;;8.88;4.97;;;;;;;12.27;44.28;100168.50;8739490;33;20223;-77
2021/04/09 10:31:22;;;;;;;9.60;5.30;;;;;;;11.66;44.35;100171.34;8714643;33;20318;-75
2021/04/09 10:36:26;;;;;;;4.18;2.58;;;;;;;10.82;45.13;100164.25;8738714;33;20239;-76
2021/04/09 10:41:33;;;;;;;5.65;4.28;;;;;;;10.83;45.54;100168.66;8738207;33;20231;-76
2021/04/09 10:46:39;;;;;;;6.72;4.25;;;;;;;11.51;43.11;100170.84;8738394;33;20907;-77
2021/04/09 10:51:43;;;;;;;6.80;4.22;;;;;;;11.34;45.35;100150.00;8738414;33;20324;-76
2021/04/09 10:56:53;;;;;;;7.95;4.32;;;;;;;11.71;43.59;100161.00;8693134;33;20232;-74
2021/04/09 11:01:56;;;;;;;6.85;3.80;;;;;;;11.80;43.38;100145.91;8681098;33;20228;-75
2021/04/09 11:07:02;;;;;;;8.02;4.00;;;;;;;11.99;42.28;100148.63;8681541;33;22026;-77
2021/04/09 11:12:24;;;;;;;4.97;4.45;;;;;;;11.73;41.55;100146.44;8680952;33;20225;-74
2021/04/09 11:17:28;;;;;;;8.43;4.65;;;;;;;10.77;44.12;100147.66;8730986;33;20304;-76
2021/04/09 11:22:31;;;;;;;7.47;5.68;;;;;;;10.86;45.28;100155.91;8693047;33;20236;-75
2021/04/09 11:27:41;;;;;;;9.43;5.30;;;;;;;11.11;44.98;100144.75;8681026;33;20267;-75
2021/04/09 11:32:47;;;;;;;7.97;5.70;;;;;;;10.77;45.47;100136.06;8685723;33;20229;-75
2021/04/09 11:37:52;;;;;;;7.20;5.53;;;;;;;11.67;43.27;100136.22;8686272;33;20221;-76
2021/04/09 11:42:55;;;;;;;8.40;6.40;;;;;;;11.60;43.54;100140.47;8687673;33;20232;-76
2021/04/09 11:48:00;;;;;;;8.35;6.30;;;;;;;11.14;43.07;100128.41;8687827;33;21004;-76
2021/04/09 11:53:05;;;;;;;9.07;5.72;;;;;;;11.17;43.17;100130.81;8686268;33;20229;-75
2021/04/09 11:58:20;;;;;;;8.20;6.40;;;;;;;11.38;44.09;100125.38;8685841;33;20658;-77
2021/04/09 12:03:38;;;;;;;8.57;6.70;;;;;;;11.94;42.69;100132.03;8686078;33;20232;-75
2021/04/09 12:08:41;;;;;;;10.50;5.82;;;;;;;13.66;38.81;100122.09;8686408;33;20232;-77
2021/04/09 12:13:46;;;;;;;6.07;4.65;;;;;;;11.41;42.31;100141.25;8685039;33;20299;-76
2021/04/09 12:18:48;;;;;;;5.18;4.65;;;;;;;10.74;42.60;100136.31;8685070;33;20229;-75
2021/04/09 12:23:51;;;;;;;7.90;5.97;;;;;;;11.32;42.62;100133.97;8684831;33;20709;-75
2021/04/09 12:28:54;;;;;;;6.43;5.65;;;;;;;11.34;40.43;100120.41;8685119;33;20224;-75
2021/04/09 12:33:57;;;;;;;6.75;5.85;;;;;;;11.77;40.83;100125.50;8740277;33;20216;-75
2021/04/09 12:39:00;;;;;;;7.18;6.47;;;;;;;11.46;41.29;100124.69;8740713;33;20224;-75
2021/04/09 12:44:05;;;;;;;6.55;5.78;;;;;;;13.02;38.85;100118.34;8740369;33;20234;-75
2021/04/09 12:49:07;;;;;;;8.18;5.93;;;;;;;13.73;37.45;100100.75;8741582;33;20269;-75
2021/04/09 12:54:10;;;;;;;7.90;6.30;;;;;;;15.31;35.01;100098.16;8740836;33;20240;-75
2021/04/09 12:59:13;;;;;;;8.60;6.03;;;;;;;13.34;36.19;100110.88;8741062;33;20223;-74
2021/04/09 13:04:16;;;;;;;8.07;7.25;;;;;;;12.19;39.24;100113.66;8741792;33;20258;-75
2021/04/09 13:09:20;;;;;;;9.68;7.38;;;;;;;12.35;40.23;100113.97;8739278;33;20232;-76
2021/04/09 13:14:24;;;;;;;8.15;6.38;;;;;;;13.38;37.19;100101.50;8733825;33;20255;-75
2021/04/09 13:19:27;;;;;;;9.95;7.07;;;;;;;12.67;38.39;100091.22;8697278;33;20282;-76
2021/04/09 13:24:31;;;;;;;12.77;9.82;;;;;;;12.02;39.60;100099.03;8682496;33;20236;-75
2021/04/09 13:29:34;;;;;;;11.82;9.40;;;;;;;12.82;39.21;100120.25;8706249;33;21028;-75
2021/04/09 13:34:37;;;;;;;12.38;6.80;;;;;;;11.41;41.24;100108.97;8740892;33;20227;-75
2021/04/09 13:39:39;;;;;;;13.90;10.73;;;;;;;11.38;42.46;100086.88;8740893;33;20224;-74
2021/04/09 13:44:43;;;;;;;12.93;10.25;;;;;;;11.84;41.03;100086.25;8740602;33;20363;-75
2021/04/09 13:49:46;;;;;;;12.20;10.35;;;;;;;13.41;39.15;100087.72;8739410;33;20259;-76
2021/04/09 13:54:48;;;;;;;10.75;9.45;;;;;;;12.12;40.27;100094.50;8738870;33;20227;-75
2021/04/09 13:59:51;;;;;;;12.27;10.55;;;;;;;12.63;39.29;100111.38;8740004;33;20219;-75
2021/04/09 14:04:53;;;;;;;13.10;10.23;;;;;;;12.65;40.14;100093.22;8739210;33;20239;-74
2021/04/09 14:09:55;;;;;;;12.00;7.75;;;;;;;12.88;39.14;100109.91;8738313;33;20227;-75
2021/04/09 14:15:13;;;;;;;14.27;9.77;;;;;;;12.28;40.75;100091.25;8716904;33;20256;-75
2021/04/09 14:20:18;;;;;;;14.63;11.00;;;;;;;11.79;43.37;100093.91;8735014;33;20248;-77
2021/04/09 14:25:21;;;;;;;14.98;10.68;;;;;;;12.88;40.24;100083.78;8735952;33;20223;-75
2021/04/09 14:30:26;;;;;;;13.63;9.32;;;;;;;12.92;40.88;100082.50;8738329;33;20629;-76
2021/04/09 14:35:28;;;;;;;13.88;10.18;;;;;;;13.83;38.32;100079.09;8702895;33;20234;-75
2021/04/09 14:40:30;;;;;;;14.02;10.23;;;;;;;12.03;41.10;100104.28;8713929;33;20219;-74
2021/04/09 14:45:36;;;;;;;13.15;9.88;;;;;;;11.20;42.00;100086.69;8738751;33;20247;-74
2021/04/09 14:50:38;;;;;;;7.57;6.40;;;;;;;10.72;43.44;100100.69;8736774;33;20234;-75
2021/04/09 14:55:40;;;;;;;12.52;8.20;;;;;;;11.21;43.46;100077.59;8710846;33;20231;-76
2021/04/09 15:00:43;;;;;;;14.93;9.20;;;;;;;10.70;44.05;100103.50;8735149;33;20224;-74
2021/04/09 15:05:46;;;;;;;17.85;12.27;;;;;;;10.90;44.29;100109.00;8735897;33;20223;-76
2021/04/09 15:10:48;;;;;;;14.48;10.15;;;;;;;10.62;44.72;100100.63;8735709;33;20215;-76
2021/04/09 15:15:51;;;;;;;15.90;11.63;;;;;;;10.98;44.03;100093.06;8705170;33;20221;-74
2021/04/09 15:20:55;;;;;;;19.08;11.20;;;;;;;11.15;43.87;100076.31;8679235;33;20220;-75
2021/04/09 15:25:57;;;;;;;17.58;12.15;;;;;;;11.13;43.79;100097.09;8723182;33;20618;-74
2021/04/09 15:31:00;;;;;;;13.88;10.70;;;;;;;10.63;44.15;100091.59;8739342;33;20227;-75
2021/04/09 15:36:04;;;;;;;14.25;11.30;;;;;;;10.84;43.99;100094.25;8764730;33;20285;-75
2021/04/09 15:41:06;;;;;;;13.55;10.38;;;;;;;10.69;44.28;100093.72;8760161;33;20231;-75
2021/04/09 15:46:09;;;;;;;12.48;8.68;;;;;;;10.31;44.85;100092.50;8769554;33;20219;-74
2021/04/09 15:51:12;;;;;;;10.50;7.15;;;;;;;10.41;44.65;100106.00;8762555;33;20219;-74
2021/04/09 15:56:15;;;;;;;13.98;9.00;;;;;;;10.76;43.68;100092.22;8765072;33;20228;-74
2021/04/09 16:01:18;;;;;;;14.43;8.52;;;;;;;10.87;43.74;100093.16;8762607;33;20731;-75
2021/04/09 16:06:20;;;;;;;14.25;9.50;;;;;;;11.03;43.91;100090.81;8763551;33;20232;-75
2021/04/09 16:11:22;;;;;;;14.93;10.73;;;;;;;11.27;44.11;100095.88;8772021;33;20230;-75
2021/04/09 16:16:25;;;;;;;11.48;8.90;;;;;;;10.88;43.57;100089.47;8720421;33;20233;-75
2021/04/09 16:21:28;;;;;;;11.68;8.15;;;;;;;10.74;43.66;100096.88;8720477;33;20282;-75
2021/04/09 16:26:30;;;;;;;13.38;8.80;;;;;;;10.73;43.24;100086.28;8726336;33;20763;-76
2021/04/09 16:31:34;;;;;;;13.95;9.13;;;;;;;10.79;43.51;100080.38;8721884;33;20236;-74
2021/04/09 16:36:38;;;;;;;12.43;8.63;;;;;;;11.19;43.25;100076.88;8722655;33;20223;-74
2021/04/09 16:41:40;;;;;;;13.10;8.20;;;;;;;11.44;42.72;100083.66;8788687;33;21504;-74
2021/04/09 16:46:43;;;;;;;12.18;7.40;;;;;;;11.32;42.57;100080.19;8797066;33;21372;-73
2021/04/09 16:51:46;;;;;;;12.50;8.57;;;;;;;11.50;41.82;100075.88;8796352;33;20280;-76
2021/04/09 16:56:48;;;;;;;12.35;7.80;;;;;;;11.26;42.29;100086.97;8796964;33;20231;-75
2021/04/09 17:01:51;;;;;;;14.00;8.70;;;;;;;11.11;43.21;100087.44;8796396;33;20607;-75
2021/04/09 17:06:54;;;;;;;10.90;8.05;;;;;;;11.17;43.29;100070.81;8796877;33;20226;-76
2021/04/09 17:11:57;;;;;;;13.40;8.63;;;;;;;11.20;43.31;100081.31;8795741;33;20218;-74
2021/04/09 17:17:00;;;;;;;10.80;7.75;;;;;;;10.77;43.74;100093.91;8749955;33;20224;-74
2021/04/09 17:22:03;;;;;;;9.50;7.40;;;;;;;10.73;43.58;100087.13;8738318;33;21607;-76
2021/04/09 17:27:06;;;;;;;11.70;7.78;;;;;;;10.71;43.97;100093.63;8737871;33;21547;-76
2021/04/09 17:32:09;;;;;;;8.27;7.07;;;;;;;10.52;43.70;100079.06;8737513;33;20227;-75
2021/04/09 17:37:13;;;;;;;10.82;6.78;;;;;;;10.59;43.56;100088.31;8737262;33;20228;-76
2021/04/09 17:42:15;;;;;;;8.95;6.95;;;;;;;10.31;44.60;100076.41;8736723;33;20677;-75
2021/04/09 17:47:18;;;;;;;8.57;7.65;;;;;;;10.14;44.49;100074.28;8712184;33;20584;-76
2021/04/09 17:52:21;;;;;;;12.30;7.85;;;;;;;10.06;45.24;100068.69;8736884;33;20273;-75
2021/04/09 17:57:23;;;;;;;10.45;8.02;;;;;;;9.97;45.37;100072.16;8741130;33;20240;-73
2021/04/09 18:02:26;;;;;;;10.82;7.38;;;;;;;9.84;44.99;100074.97;8743793;33;20679;-75
2021/04/09 18:07:28;;;;;;;8.25;6.75;;;;;;;9.84;45.00;100061.56;8736842;33;20232;-74
2021/04/09 18:12:31;;;;;;;10.77;7.72;;;;;;;9.70;45.73;100065.38;8765245;33;20223;-76
2021/04/09 18:17:34;;;;;;;9.73;8.13;;;;;;;9.54;45.81;100073.81;8755205;33;20223;-76
2021/04/09 18:22:36;;;;;;;9.80;7.50;;;;;;;9.44;45.91;100084.47;8777559;33;20231;-76
2021/04/09 18:27:39;;;;;;;9.70;7.53;;;;;;;9.38;45.71;100076.94;8794118;33;20238;-74
2021/04/09 18:32:42;;;;;;;10.15;7.90;;;;;;;9.34;46.14;100077.28;8762632;33;21462;-75
2021/04/09 18:37:45;;;;;;;13.30;7.72;;;;;;;9.27;46.32;100085.84;8753972;33;20234;-75
2021/04/09 18:42:48;;;;;;;13.60;8.30;;;;;;;9.32;46.10;100082.75;8753061;33;20853;-74
2021/04/09 18:47:51;;;;;;;11.20;7.70;;;;;;;9.36;46.15;100094.94;8749252;33;20227;-75
2021/04/09 18:52:53;;;;;;;11.52;6.95;;;;;;;9.36;46.32;100086.06;8785470;33;20224;-75
2021/04/09 18:57:55;;;;;;;9.13;7.65;;;;;;;9.38;45.97;100090.34;8793529;33;20231;-74
2021/04/09 19:02:58;;;;;;;11.30;7.38;;;;;;;9.40;46.18;100095.56;8793205;33;20232;-74
2021/04/09 19:08:02;;;;;;;11.68;8.05;;;;;;;9.44;46.13;100094.34;8794869;33;20234;-74
2021/04/09 19:13:04;;;;;;;9.15;7.35;;;;;;;9.48;45.94;100099.31;8793198;33;20254;-74
2021/04/09 19:18:07;;;;;;;13.80;10.10;;;;;;;9.47;46.12;100091.41;8735686;33;20243;-74
2021/04/09 19:23:10;;;;;;;16.10;9.82;;;;;;;9.37;46.65;100115.41;8711119;33;20925;-75
2021/04/09 19:28:12;;;;;;;17.95;10.70;;;;;;;9.38;46.29;100110.91;8703436;33;20229;-74
2021/04/09 19:33:15;;;;;;;13.43;9.00;;;;;;;9.42;46.28;100115.06;8727995;33;20651;-75
2021/04/09 19:38:18;;;;;;;13.18;9.52;;;;;;;9.45;46.37;100115.66;8762098;33;20315;-75
2021/04/09 19:43:21;;;;;;;14.02;10.52;;;;;;;9.45;47.23;100104.06;8761576;33;20260;-74
2021/04/09 19:48:25;;;;;;;63.97;25.63;;;;;;;9.31;48.34;100110.56;8764126;33;20234;-74
2021/04/09 19:53:28;;;;;;;25.75;15.18;;;;;;;9.16;49.25;100111.75;8767018;33;20274;-74
2021/04/09 19:58:30;;;;;;;40.60;18.92;;;;;;;9.01;52.41;100114.69;8761913;33;20236;-74
2021/04/09 20:03:53;;;;;;;14.70;9.90;;;;;;;8.08;51.26;100103.13;8762338;33;20326;-74
2021/04/09 20:08:55;;;;;;;17.77;10.13;;;;;;;8.90;52.06;100089.72;8754381;33;20249;-74
2021/04/09 20:13:57;;;;;;;17.23;10.85;;;;;;;8.89;53.06;100093.38;8729318;33;20236;-75
2021/04/09 20:19:00;;;;;;;16.98;9.45;;;;;;;8.57;51.00;100086.88;8761915;33;20728;-75
2021/04/09 20:24:03;;;;;;;12.35;8.43;;;;;;;8.76;49.27;100093.50;8768239;33;20228;-74
2021/04/09 20:29:05;;;;;;;17.42;9.45;;;;;;;8.80;49.47;100093.13;8743846;33;20724;-75
2021/04/09 20:34:08;;;;;;;20.60;12.75;;;;;;;8.70;51.06;100088.63;8738683;33;20228;-75
2021/04/09 20:39:11;;;;;;;14.23;9.27;;;;;;;8.59;51.19;100098.31;8738854;33;20228;-75
2021/04/09 20:44:13;;;;;;;14.18;9.45;;;;;;;8.57;50.90;100088.72;8739286;33;20270;-75
2021/04/09 20:49:16;;;;;;;19.45;11.52;;;;;;;8.49;51.13;100086.63;8715254;33;20224;-75
2021/04/09 20:54:18;;;;;;;11.70;9.48;;;;;;;8.45;50.84;100101.19;8740655;33;20326;-73
2021/04/09 20:59:21;;;;;;;28.45;14.27;;;;;;;8.38;51.34;100098.09;8740264;33;20226;-75
2021/04/09 21:04:24;;;;;;;35.17;16.02;;;;;;;8.29;51.82;100090.78;8715948;33;20728;-73
2021/04/09 21:09:29;;;;;;;24.55;13.32;;;;;;;8.14;52.21;100086.59;8740386;33;20228;-75
2021/04/09 21:14:31;;;;;;;23.35;13.73;;;;;;;8.06;52.86;100100.53;8741501;33;20238;-75
2021/04/09 21:19:34;;;;;;;22.00;12.25;;;;;;;7.95;53.39;100101.38;8739870;33;20704;-74
2021/04/09 21:24:38;;;;;;;19.15;10.88;;;;;;;7.82;54.38;100097.91;8735965;33;20246;-74
2021/04/09 21:29:42;;;;;;;16.90;10.25;;;;;;;7.69;55.44;100094.41;8739706;33;20218;-74
2021/04/09 21:34:45;;;;;;;16.55;9.73;;;;;;;7.59;56.54;100085.34;8739065;33;20223;-75
2021/04/09 21:39:47;;;;;;;13.93;9.68;;;;;;;7.58;57.49;100086.34;8739714;33;20215;-74
2021/04/09 21:44:50;;;;;;;14.88;9.88;;;;;;;7.58;58.11;100081.00;8739665;33;20820;-74
2021/04/09 21:49:53;;;;;;;17.40;10.80;;;;;;;7.54;58.85;100076.81;8740064;33;20235;-74
2021/04/09 21:54:55;;;;;;;15.85;10.23;;;;;;;7.52;58.87;100071.59;8739826;33;20746;-74
2021/04/09 21:59:57;;;;;;;19.95;9.82;;;;;;;7.48;58.93;100075.44;8739471;33;20467;-74
2021/04/09 22:05:00;;;;;;;18.42;10.00;;;;;;;7.51;59.05;100083.25;8739710;33;20232;-74
2021/04/09 22:10:07;;;;;;;13.40;9.07;;;;;;;7.57;58.99;100081.94;8739080;33;20223;-74
2021/04/09 22:15:11;;;;;;;16.33;9.32;;;;;;;7.68;58.96;100085.56;8715940;33;20225;-74
2021/04/09 22:20:18;;;;;;;16.90;9.13;;;;;;;7.70;58.73;100088.09;8681318;33;20224;-74
2021/04/09 22:25:23;;;;;;;20.42;10.75;;;;;;;7.76;58.69;100084.97;8681190;33;20241;-73
2021/04/09 22:30:26;;;;;;;15.27;10.23;;;;;;;7.77;58.32;100083.16;8681346;33;20235;-74
2021/04/09 22:35:31;;;;;;;21.23;10.82;;;;;;;7.77;58.20;100089.34;8681241;33;20240;-74
2021/04/09 22:40:33;;;;;;;17.27;10.90;;;;;;;7.68;58.57;100093.56;8681354;33;20239;-74
2021/04/09 22:45:37;;;;;;;18.13;10.70;;;;;;;7.64;58.67;100086.72;8657200;33;21479;-74
2021/04/09 22:50:40;;;;;;;16.25;10.65;;;;;;;7.65;59.00;100084.91;8680786;33;20220;-74
2021/04/09 22:55:42;;;;;;;14.88;10.10;;;;;;;7.55;59.70;100076.72;8680384;33;21574;-74
2021/04/09 23:00:45;;;;;;;15.13;9.70;;;;;;;7.46;59.99;100080.94;8680618;33;20340;-75
2021/04/09 23:05:49;;;;;;;16.55;9.73;;;;;;;7.38;60.42;100090.47;8680773;33;20737;-74
2021/04/09 23:10:51;;;;;;;13.15;9.57;;;;;;;7.30;60.89;100076.81;8680257;33;20252;-74
2021/04/09 23:15:55;;;;;;;18.23;10.13;;;;;;;7.34;61.21;100070.25;8688008;33;20225;-75
2021/04/09 23:20:58;;;;;;;16.58;10.15;;;;;;;7.36;61.36;100068.34;8680970;33;20229;-75
2021/04/09 23:26:01;;;;;;;16.02;10.45;;;;;;;7.31;61.56;100071.34;8680528;33;20228;-75
2021/04/09 23:31:03;;;;;;;18.95;11.23;;;;;;;7.27;61.66;100076.06;8680083;33;20224;-74